Terminal Aerodrome Forecast
Issued by NWS

Home | Current Version | Previous Version | Text Only | Print | Product List | Glossary On
Versions: 1 2 3 4 5 6 7 8 9 10 11 12 13 14 15 16 17 18 19 20 21
000
FTAK31 PAFA 261125
TAFASC
TAF
PASC 261125Z 2612/2712 11004KT 5SM BR OVC003
      TEMPO 2612/2614 1/2SM FG
     FM262000 08005KT 6SM BR OVC015
     FM270400 08012KT 4SM BR OVC004=

USA.gov is the U.S. government's official web portal to all federal, state and local government web resources and services.